sensor_id;sensor_type;location;lat;lon;timestamp;temperature;humidity
4727;DHT22;2377;51.734;8.950;2022-08-19T00:00:39;20.80;99.90
4727;DHT22;2377;51.734;8.950;2022-08-19T00:03:06;20.80;99.90
4727;DHT22;2377;51.734;8.950;2022-08-19T00:05:33;20.80;99.90
4727;DHT22;2377;51.734;8.950;2022-08-19T00:08:01;20.80;99.90
4727;DHT22;2377;51.734;8.950;2022-08-19T00:10:28;20.80;99.90
4727;DHT22;2377;51.734;8.950;2022-08-19T00:12:55;20.80;99.90
4727;DHT22;2377;51.734;8.950;2022-08-19T00:15:22;20.80;99.90
4727;DHT22;2377;51.734;8.950;2022-08-19T00:17:51;20.80;99.90
4727;DHT22;2377;51.734;8.950;2022-08-19T00:20:20;20.90;99.90
4727;DHT22;2377;51.734;8.950;2022-08-19T00:22:48;20.90;99.90
4727;DHT22;2377;51.734;8.950;2022-08-19T00:25:16;20.90;99.90
4727;DHT22;2377;51.734;8.950;2022-08-19T00:27:43;20.80;99.90
4727;DHT22;2377;51.734;8.950;2022-08-19T00:30:11;20.80;99.90
4727;DHT22;2377;51.734;8.950;2022-08-19T00:32:39;20.80;99.90
4727;DHT22;2377;51.734;8.950;2022-08-19T00:35:08;20.80;99.90
4727;DHT22;2377;51.734;8.950;2022-08-19T00:37:37;20.80;99.90
4727;DHT22;2377;51.734;8.950;2022-08-19T00:40:09;20.80;99.90
4727;DHT22;2377;51.734;8.950;2022-08-19T00:42:38;20.80;99.90
4727;DHT22;2377;51.734;8.950;2022-08-19T00:45:11;20.80;99.90
4727;DHT22;2377;51.734;8.950;2022-08-19T00:47:41;20.70;99.90
4727;DHT22;2377;51.734;8.950;2022-08-19T00:50:11;20.80;99.90
4727;DHT22;2377;51.734;8.950;2022-08-19T00:52:43;20.70;99.90
4727;DHT22;2377;51.734;8.950;2022-08-19T00:55:16;20.70;99.90
4727;DHT22;2377;51.734;8.950;2022-08-19T00:57:50;20.60;99.90
4727;DHT22;2377;51.734;8.950;2022-08-19T01:00:23;20.60;99.90
4727;DHT22;2377;51.734;8.950;2022-08-19T01:02:52;20.50;99.90
4727;DHT22;2377;51.734;8.950;2022-08-19T01:05:23;20.50;99.90
4727;DHT22;2377;51.734;8.950;2022-08-19T01:07:54;20.50;99.90
4727;DHT22;2377;51.734;8.950;2022-08-19T01:10:26;20.50;99.90
4727;DHT22;2377;51.734;8.950;2022-08-19T01:12:57;20.50;99.90
4727;DHT22;2377;51.734;8.950;2022-08-19T01:15:29;20.50;99.90
4727;DHT22;2377;51.734;8.950;2022-08-19T01:18:00;20.50;99.90
4727;DHT22;2377;51.734;8.950;2022-08-19T01:20:32;20.40;99.90
4727;DHT22;2377;51.734;8.950;2022-08-19T01:23:02;20.40;99.90
4727;DHT22;2377;51.734;8.950;2022-08-19T01:25:32;20.40;99.90
4727;DHT22;2377;51.734;8.950;2022-08-19T01:28:07;20.40;99.90
4727;DHT22;2377;51.734;8.950;2022-08-19T01:30:35;20.40;99.90
4727;DHT22;2377;51.734;8.950;2022-08-19T01:33:02;20.40;99.90
4727;DHT22;2377;51.734;8.950;2022-08-19T01:35:32;20.30;99.90
4727;DHT22;2377;51.734;8.950;2022-08-19T01:38:05;20.30;99.90
4727;DHT22;2377;51.734;8.950;2022-08-19T01:40:38;20.30;99.90
4727;DHT22;2377;51.734;8.950;2022-08-19T01:43:07;20.30;99.90
4727;DHT22;2377;51.734;8.950;2022-08-19T01:45:35;20.10;99.90
4727;DHT22;2377;51.734;8.950;2022-08-19T01:48:06;20.10;99.90
4727;DHT22;2377;51.734;8.950;2022-08-19T01:50:34;20.10;99.90
4727;DHT22;2377;51.734;8.950;2022-08-19T01:53:05;20.10;99.90
4727;DHT22;2377;51.734;8.950;2022-08-19T01:55:37;20.00;99.90
4727;DHT22;2377;51.734;8.950;2022-08-19T01:58:08;20.00;99.90
4727;DHT22;2377;51.734;8.950;2022-08-19T02:00:40;19.90;99.90
4727;DHT22;2377;51.734;8.950;2022-08-19T02:03:07;19.90;99.90
4727;DHT22;2377;51.734;8.950;2022-08-19T02:05:36;19.80;99.90
4727;DHT22;2377;51.734;8.950;2022-08-19T02:08:06;19.80;99.90
4727;DHT22;2377;51.734;8.950;2022-08-19T02:10:37;19.80;99.90
4727;DHT22;2377;51.734;8.950;2022-08-19T02:13:06;19.80;99.90
4727;DHT22;2377;51.734;8.950;2022-08-19T02:15:33;19.80;99.90
4727;DHT22;2377;51.734;8.950;2022-08-19T02:18:00;19.70;99.90
4727;DHT22;2377;51.734;8.950;2022-08-19T02:20:27;19.60;99.90
4727;DHT22;2377;51.734;8.950;2022-08-19T02:22:54;19.50;99.90
4727;DHT22;2377;51.734;8.950;2022-08-19T02:25:23;19.50;99.90
4727;DHT22;2377;51.734;8.950;2022-08-19T02:27:50;19.50;99.90
4727;DHT22;2377;51.734;8.950;2022-08-19T02:30:17;19.50;99.90
4727;DHT22;2377;51.734;8.950;2022-08-19T02:32:45;19.40;99.90
4727;DHT22;2377;51.734;8.950;2022-08-19T02:35:12;19.40;99.90
4727;DHT22;2377;51.734;8.950;2022-08-19T02:37:41;19.30;99.90
4727;DHT22;2377;51.734;8.950;2022-08-19T02:40:28;19.30;99.90
4727;DHT22;2377;51.734;8.950;2022-08-19T02:42:59;19.30;99.90
4727;DHT22;2377;51.734;8.950;2022-08-19T02:45:26;19.30;99.90
4727;DHT22;2377;51.734;8.950;2022-08-19T02:47:53;19.20;99.90
4727;DHT22;2377;51.734;8.950;2022-08-19T02:50:22;19.20;99.90
4727;DHT22;2377;51.734;8.950;2022-08-19T02:52:49;19.20;99.90
4727;DHT22;2377;51.734;8.950;2022-08-19T02:55:16;19.10;99.90
4727;DHT22;2377;51.734;8.950;2022-08-19T02:57:45;19.10;99.90
4727;DHT22;2377;51.734;8.950;2022-08-19T03:00:13;19.10;99.90
4727;DHT22;2377;51.734;8.950;2022-08-19T03:02:41;19.10;99.90
4727;DHT22;2377;51.734;8.950;2022-08-19T03:05:09;19.10;99.90
4727;DHT22;2377;51.734;8.950;2022-08-19T03:07:37;19.00;99.90
4727;DHT22;2377;51.734;8.950;2022-08-19T03:10:05;19.00;99.90
4727;DHT22;2377;51.734;8.950;2022-08-19T03:12:35;18.90;99.90
4727;DHT22;2377;51.734;8.950;2022-08-19T03:15:07;18.90;99.90
4727;DHT22;2377;51.734;8.950;2022-08-19T03:17:35;18.80;99.90
4727;DHT22;2377;51.734;8.950;2022-08-19T03:20:12;18.80;99.90
4727;DHT22;2377;51.734;8.950;2022-08-19T03:22:39;18.80;99.90
4727;DHT22;2377;51.734;8.950;2022-08-19T03:25:06;18.70;99.90
4727;DHT22;2377;51.734;8.950;2022-08-19T03:27:34;18.60;99.90
4727;DHT22;2377;51.734;8.950;2022-08-19T03:30:01;18.60;99.90
4727;DHT22;2377;51.734;8.950;2022-08-19T03:32:31;18.50;99.90
4727;DHT22;2377;51.734;8.950;2022-08-19T03:34:58;18.50;99.90
4727;DHT22;2377;51.734;8.950;2022-08-19T03:37:25;18.50;99.90
4727;DHT22;2377;51.734;8.950;2022-08-19T03:39:52;18.40;99.90
4727;DHT22;2377;51.734;8.950;2022-08-19T03:42:19;18.40;99.90
4727;DHT22;2377;51.734;8.950;2022-08-19T03:44:46;18.40;99.90
4727;DHT22;2377;51.734;8.950;2022-08-19T03:47:13;18.40;99.90
4727;DHT22;2377;51.734;8.950;2022-08-19T03:49:44;18.30;99.90
4727;DHT22;2377;51.734;8.950;2022-08-19T03:52:11;18.20;99.90
4727;DHT22;2377;51.734;8.950;2022-08-19T03:54:39;18.10;99.90
4727;DHT22;2377;51.734;8.950;2022-08-19T03:57:07;18.00;99.90
4727;DHT22;2377;51.734;8.950;2022-08-19T03:59:36;18.10;99.90
4727;DHT22;2377;51.734;8.950;2022-08-19T04:02:07;18.00;99.90
4727;DHT22;2377;51.734;8.950;2022-08-19T04:04:36;18.00;99.90
4727;DHT22;2377;51.734;8.950;2022-08-19T04:07:06;18.00;99.90
4727;DHT22;2377;51.734;8.950;2022-08-19T04:09:34;17.90;99.90
4727;DHT22;2377;51.734;8.950;2022-08-19T04:12:03;17.90;99.90
4727;DHT22;2377;51.734;8.950;2022-08-19T04:14:32;17.90;99.90
4727;DHT22;2377;51.734;8.950;2022-08-19T04:17:01;17.90;99.90
4727;DHT22;2377;51.734;8.950;2022-08-19T04:19:31;17.80;99.90
4727;DHT22;2377;51.734;8.950;2022-08-19T04:21:59;17.90;99.90
4727;DHT22;2377;51.734;8.950;2022-08-19T04:24:27;17.80;99.90
4727;DHT22;2377;51.734;8.950;2022-08-19T04:26:54;17.90;99.90
4727;DHT22;2377;51.734;8.950;2022-08-19T04:29:24;17.90;99.90
4727;DHT22;2377;51.734;8.950;2022-08-19T04:31:53;17.90;99.90
4727;DHT22;2377;51.734;8.950;2022-08-19T04:34:24;17.90;99.90
4727;DHT22;2377;51.734;8.950;2022-08-19T04:36:54;17.90;99.90
4727;DHT22;2377;51.734;8.950;2022-08-19T04:39:25;17.90;99.90
4727;DHT22;2377;51.734;8.950;2022-08-19T04:42:09;18.00;99.90
4727;DHT22;2377;51.734;8.950;2022-08-19T04:44:54;18.00;99.90
4727;DHT22;2377;51.734;8.950;2022-08-19T04:47:21;18.00;99.90
4727;DHT22;2377;51.734;8.950;2022-08-19T04:49:49;18.00;99.90
4727;DHT22;2377;51.734;8.950;2022-08-19T04:52:16;18.00;99.90
4727;DHT22;2377;51.734;8.950;2022-08-19T04:54:44;18.10;99.90
4727;DHT22;2377;51.734;8.950;2022-08-19T04:57:11;18.10;99.90
4727;DHT22;2377;51.734;8.950;2022-08-19T04:59:39;18.20;99.90
4727;DHT22;2377;51.734;8.950;2022-08-19T05:02:07;18.20;99.90
4727;DHT22;2377;51.734;8.950;2022-08-19T05:04:35;18.30;99.90
4727;DHT22;2377;51.734;8.950;2022-08-19T05:07:04;18.30;99.90
4727;DHT22;2377;51.734;8.950;2022-08-19T05:09:31;18.30;99.90
4727;DHT22;2377;51.734;8.950;2022-08-19T05:12:00;18.30;99.90
4727;DHT22;2377;51.734;8.950;2022-08-19T05:14:27;18.30;99.90
4727;DHT22;2377;51.734;8.950;2022-08-19T05:16:54;18.30;99.90
4727;DHT22;2377;51.734;8.950;2022-08-19T05:19:21;18.30;99.90
4727;DHT22;2377;51.734;8.950;2022-08-19T05:22:06;18.50;99.90
4727;DHT22;2377;51.734;8.950;2022-08-19T05:24:51;18.50;99.90
4727;DHT22;2377;51.734;8.950;2022-08-19T05:27:19;18.50;99.90
4727;DHT22;2377;51.734;8.950;2022-08-19T05:29:46;18.50;99.90
4727;DHT22;2377;51.734;8.950;2022-08-19T05:32:13;18.50;99.90
4727;DHT22;2377;51.734;8.950;2022-08-19T05:34:40;18.40;99.90
4727;DHT22;2377;51.734;8.950;2022-08-19T05:37:08;18.30;99.90
4727;DHT22;2377;51.734;8.950;2022-08-19T05:39:36;18.40;99.90
4727;DHT22;2377;51.734;8.950;2022-08-19T05:42:05;18.40;99.90
4727;DHT22;2377;51.734;8.950;2022-08-19T05:44:37;18.40;99.90
4727;DHT22;2377;51.734;8.950;2022-08-19T05:47:11;18.40;99.90
4727;DHT22;2377;51.734;8.950;2022-08-19T05:49:40;18.50;99.90
4727;DHT22;2377;51.734;8.950;2022-08-19T05:52:10;18.50;99.90
4727;DHT22;2377;51.734;8.950;2022-08-19T05:54:41;18.50;99.90
4727;DHT22;2377;51.734;8.950;2022-08-19T05:57:10;18.50;99.90
4727;DHT22;2377;51.734;8.950;2022-08-19T05:59:39;18.50;99.90
4727;DHT22;2377;51.734;8.950;2022-08-19T06:02:08;18.50;99.90
4727;DHT22;2377;51.734;8.950;2022-08-19T06:04:35;18.50;99.90
4727;DHT22;2377;51.734;8.950;2022-08-19T06:07:03;18.50;99.90
4727;DHT22;2377;51.734;8.950;2022-08-19T06:09:30;18.60;99.90
4727;DHT22;2377;51.734;8.950;2022-08-19T06:11:58;18.60;99.90
4727;DHT22;2377;51.734;8.950;2022-08-19T06:14:28;18.50;99.90
4727;DHT22;2377;51.734;8.950;2022-08-19T06:16:59;18.50;99.90
4727;DHT22;2377;51.734;8.950;2022-08-19T06:19:28;18.50;99.90
4727;DHT22;2377;51.734;8.950;2022-08-19T06:21:57;18.50;99.90
4727;DHT22;2377;51.734;8.950;2022-08-19T06:24:26;18.60;99.90
4727;DHT22;2377;51.734;8.950;2022-08-19T06:26:56;18.60;99.90
4727;DHT22;2377;51.734;8.950;2022-08-19T06:29:27;18.50;99.90
4727;DHT22;2377;51.734;8.950;2022-08-19T06:32:00;18.50;99.90
4727;DHT22;2377;51.734;8.950;2022-08-19T06:34:31;18.50;99.90
4727;DHT22;2377;51.734;8.950;2022-08-19T06:37:01;18.50;99.90
4727;DHT22;2377;51.734;8.950;2022-08-19T06:39:30;18.60;99.90
4727;DHT22;2377;51.734;8.950;2022-08-19T06:42:03;18.80;99.90
4727;DHT22;2377;51.734;8.950;2022-08-19T06:44:35;18.80;99.90
4727;DHT22;2377;51.734;8.950;2022-08-19T06:47:08;18.80;99.90
4727;DHT22;2377;51.734;8.950;2022-08-19T06:49:36;18.90;99.90
4727;DHT22;2377;51.734;8.950;2022-08-19T06:52:04;18.90;99.90
4727;DHT22;2377;51.734;8.950;2022-08-19T06:54:32;18.80;99.90
4727;DHT22;2377;51.734;8.950;2022-08-19T06:57:00;18.90;99.90
4727;DHT22;2377;51.734;8.950;2022-08-19T06:59:29;19.00;99.90
4727;DHT22;2377;51.734;8.950;2022-08-19T07:02:00;19.10;99.90
4727;DHT22;2377;51.734;8.950;2022-08-19T07:04:33;19.10;99.90
4727;DHT22;2377;51.734;8.950;2022-08-19T07:07:06;19.20;99.90
4727;DHT22;2377;51.734;8.950;2022-08-19T07:09:36;19.30;99.90
4727;DHT22;2377;51.734;8.950;2022-08-19T07:12:07;19.30;99.90
4727;DHT22;2377;51.734;8.950;2022-08-19T07:14:37;19.30;99.90
4727;DHT22;2377;51.734;8.950;2022-08-19T07:17:06;19.30;99.90
4727;DHT22;2377;51.734;8.950;2022-08-19T07:19:37;19.40;99.90
4727;DHT22;2377;51.734;8.950;2022-08-19T07:22:06;19.50;99.90
4727;DHT22;2377;51.734;8.950;2022-08-19T07:24:34;19.60;99.90
4727;DHT22;2377;51.734;8.950;2022-08-19T07:27:03;19.70;99.90
4727;DHT22;2377;51.734;8.950;2022-08-19T07:29:34;19.80;99.90
4727;DHT22;2377;51.734;8.950;2022-08-19T07:32:03;20.00;99.90
4727;DHT22;2377;51.734;8.950;2022-08-19T07:34:32;20.10;99.90
4727;DHT22;2377;51.734;8.950;2022-08-19T07:37:03;20.30;99.90
4727;DHT22;2377;51.734;8.950;2022-08-19T07:39:33;20.50;99.90
4727;DHT22;2377;51.734;8.950;2022-08-19T07:42:04;20.70;99.90
4727;DHT22;2377;51.734;8.950;2022-08-19T07:44:33;21.00;99.90
4727;DHT22;2377;51.734;8.950;2022-08-19T07:47:01;21.00;99.90
4727;DHT22;2377;51.734;8.950;2022-08-19T07:49:30;21.10;94.80
4727;DHT22;2377;51.734;8.950;2022-08-19T07:51:59;21.10;86.30
4727;DHT22;2377;51.734;8.950;2022-08-19T07:54:32;21.20;74.70
4727;DHT22;2377;51.734;8.950;2022-08-19T07:57:02;21.20;78.60
4727;DHT22;2377;51.734;8.950;2022-08-19T07:59:31;21.40;57.60
4727;DHT22;2377;51.734;8.950;2022-08-19T08:01:58;21.50;58.30
4727;DHT22;2377;51.734;8.950;2022-08-19T08:04:26;21.70;36.00
4727;DHT22;2377;51.734;8.950;2022-08-19T08:07:11;21.70;16.10
4727;DHT22;2377;51.734;8.950;2022-08-19T08:09:58;21.70;6.40
4727;DHT22;2377;51.734;8.950;2022-08-19T08:12:29;21.80;24.70
4727;DHT22;2377;51.734;8.950;2022-08-19T08:14:59;21.80;7.30
4727;DHT22;2377;51.734;8.950;2022-08-19T08:17:29;22.20;1.00
4727;DHT22;2377;51.734;8.950;2022-08-19T08:19:57;22.50;1.00
4727;DHT22;2377;51.734;8.950;2022-08-19T08:22:25;22.50;1.00
4727;DHT22;2377;51.734;8.950;2022-08-19T08:25:14;22.30;1.00
4727;DHT22;2377;51.734;8.950;2022-08-19T08:27:45;22.30;1.00
4727;DHT22;2377;51.734;8.950;2022-08-19T08:30:14;22.30;1.00
4727;DHT22;2377;51.734;8.950;2022-08-19T08:32:44;22.40;1.00
4727;DHT22;2377;51.734;8.950;2022-08-19T08:35:15;22.30;1.00
4727;DHT22;2377;51.734;8.950;2022-08-19T08:37:44;22.40;1.00
4727;DHT22;2377;51.734;8.950;2022-08-19T08:40:19;22.50;1.00
4727;DHT22;2377;51.734;8.950;2022-08-19T08:42:54;22.60;1.00
4727;DHT22;2377;51.734;8.950;2022-08-19T08:45:30;23.00;1.00
4727;DHT22;2377;51.734;8.950;2022-08-19T08:48:04;23.10;1.00
4727;DHT22;2377;51.734;8.950;2022-08-19T08:50:41;23.20;1.00
4727;DHT22;2377;51.734;8.950;2022-08-19T08:53:14;23.30;1.00
4727;DHT22;2377;51.734;8.950;2022-08-19T08:55:46;23.40;1.00
4727;DHT22;2377;51.734;8.950;2022-08-19T08:58:19;23.50;1.00
4727;DHT22;2377;51.734;8.950;2022-08-19T09:00:51;23.50;1.00
4727;DHT22;2377;51.734;8.950;2022-08-19T09:03:21;23.50;1.00
4727;DHT22;2377;51.734;8.950;2022-08-19T09:05:59;23.50;1.00
4727;DHT22;2377;51.734;8.950;2022-08-19T09:08:48;23.60;1.00
4727;DHT22;2377;51.734;8.950;2022-08-19T09:11:35;24.00;1.00
4727;DHT22;2377;51.734;8.950;2022-08-19T09:14:19;24.00;1.00
4727;DHT22;2377;51.734;8.950;2022-08-19T09:16:59;23.90;1.00
4727;DHT22;2377;51.734;8.950;2022-08-19T09:19:29;23.70;1.00
4727;DHT22;2377;51.734;8.950;2022-08-19T09:21:56;23.60;1.00
4727;DHT22;2377;51.734;8.950;2022-08-19T09:24:26;23.80;1.00
4727;DHT22;2377;51.734;8.950;2022-08-19T09:26:54;23.60;1.00
4727;DHT22;2377;51.734;8.950;2022-08-19T09:29:21;23.50;1.00
4727;DHT22;2377;51.734;8.950;2022-08-19T09:31:48;23.50;1.00
4727;DHT22;2377;51.734;8.950;2022-08-19T09:34:16;23.30;1.00
4727;DHT22;2377;51.734;8.950;2022-08-19T09:36:45;23.20;1.00
4727;DHT22;2377;51.734;8.950;2022-08-19T09:39:12;23.30;1.00
4727;DHT22;2377;51.734;8.950;2022-08-19T09:41:39;23.40;1.00
4727;DHT22;2377;51.734;8.950;2022-08-19T09:44:07;23.30;1.00
4727;DHT22;2377;51.734;8.950;2022-08-19T09:46:36;23.30;1.00
4727;DHT22;2377;51.734;8.950;2022-08-19T09:49:03;23.20;1.00
4727;DHT22;2377;51.734;8.950;2022-08-19T09:51:32;23.30;1.00
4727;DHT22;2377;51.734;8.950;2022-08-19T09:54:01;23.70;1.00
4727;DHT22;2377;51.734;8.950;2022-08-19T09:56:30;24.10;1.00
4727;DHT22;2377;51.734;8.950;2022-08-19T09:58:58;24.40;1.00
4727;DHT22;2377;51.734;8.950;2022-08-19T10:01:28;24.50;1.00
4727;DHT22;2377;51.734;8.950;2022-08-19T10:03:58;24.50;1.00
4727;DHT22;2377;51.734;8.950;2022-08-19T10:06:29;24.80;1.00
4727;DHT22;2377;51.734;8.950;2022-08-19T10:08:58;25.00;1.00
4727;DHT22;2377;51.734;8.950;2022-08-19T10:11:25;25.00;1.00
4727;DHT22;2377;51.734;8.950;2022-08-19T10:13:53;24.90;1.00
4727;DHT22;2377;51.734;8.950;2022-08-19T10:16:22;25.00;1.00
4727;DHT22;2377;51.734;8.950;2022-08-19T10:18:53;24.70;1.00
4727;DHT22;2377;51.734;8.950;2022-08-19T10:21:23;24.60;1.00
4727;DHT22;2377;51.734;8.950;2022-08-19T10:23:54;24.90;1.00
4727;DHT22;2377;51.734;8.950;2022-08-19T10:26:24;25.20;1.00
4727;DHT22;2377;51.734;8.950;2022-08-19T10:28:53;25.50;1.00
4727;DHT22;2377;51.734;8.950;2022-08-19T10:31:23;25.60;1.00
4727;DHT22;2377;51.734;8.950;2022-08-19T10:33:58;25.70;1.00
4727;DHT22;2377;51.734;8.950;2022-08-19T10:36:27;25.70;1.00
4727;DHT22;2377;51.734;8.950;2022-08-19T10:38:58;25.70;1.00
4727;DHT22;2377;51.734;8.950;2022-08-19T10:41:33;26.00;1.00
4727;DHT22;2377;51.734;8.950;2022-08-19T10:44:05;26.00;1.00
4727;DHT22;2377;51.734;8.950;2022-08-19T10:46:36;25.80;1.00
4727;DHT22;2377;51.734;8.950;2022-08-19T10:49:09;25.80;1.00
4727;DHT22;2377;51.734;8.950;2022-08-19T10:51:37;26.00;1.00
4727;DHT22;2377;51.734;8.950;2022-08-19T10:54:23;26.30;1.00
4727;DHT22;2377;51.734;8.950;2022-08-19T10:57:11;26.40;99.90
4727;DHT22;2377;51.734;8.950;2022-08-19T10:59:38;26.70;1.00
4727;DHT22;2377;51.734;8.950;2022-08-19T11:02:08;26.60;99.90
4727;DHT22;2377;51.734;8.950;2022-08-19T11:04:39;26.50;99.90
4727;DHT22;2377;51.734;8.950;2022-08-19T11:07:08;26.50;99.90
4727;DHT22;2377;51.734;8.950;2022-08-19T11:09:39;26.50;99.90
4727;DHT22;2377;51.734;8.950;2022-08-19T11:12:08;26.60;99.90
4727;DHT22;2377;51.734;8.950;2022-08-19T11:14:38;26.60;99.90
4727;DHT22;2377;51.734;8.950;2022-08-19T11:17:05;26.50;99.90
4727;DHT22;2377;51.734;8.950;2022-08-19T11:19:33;26.60;99.90
4727;DHT22;2377;51.734;8.950;2022-08-19T11:22:02;26.50;99.90
4727;DHT22;2377;51.734;8.950;2022-08-19T11:24:30;26.50;99.90
4727;DHT22;2377;51.734;8.950;2022-08-19T11:27:02;26.30;99.90
4727;DHT22;2377;51.734;8.950;2022-08-19T11:29:31;26.10;99.90
4727;DHT22;2377;51.734;8.950;2022-08-19T11:32:02;26.00;99.90
4727;DHT22;2377;51.734;8.950;2022-08-19T11:34:30;26.00;99.90
4727;DHT22;2377;51.734;8.950;2022-08-19T11:36:57;26.00;99.90
4727;DHT22;2377;51.734;8.950;2022-08-19T11:39:28;26.10;99.90
4727;DHT22;2377;51.734;8.950;2022-08-19T11:41:58;26.00;99.90
4727;DHT22;2377;51.734;8.950;2022-08-19T11:44:26;26.00;99.90
4727;DHT22;2377;51.734;8.950;2022-08-19T11:46:56;25.80;99.90
4727;DHT22;2377;51.734;8.950;2022-08-19T11:49:25;26.10;99.90
4727;DHT22;2377;51.734;8.950;2022-08-19T11:51:52;26.30;99.90
4727;DHT22;2377;51.734;8.950;2022-08-19T11:54:20;26.60;99.90
4727;DHT22;2377;51.734;8.950;2022-08-19T11:56:48;26.80;99.90
4727;DHT22;2377;51.734;8.950;2022-08-19T11:59:15;26.90;99.90
4727;DHT22;2377;51.734;8.950;2022-08-19T12:01:42;27.00;99.90
4727;DHT22;2377;51.734;8.950;2022-08-19T12:04:10;27.20;99.90
4727;DHT22;2377;51.734;8.950;2022-08-19T12:06:39;27.30;99.90
4727;DHT22;2377;51.734;8.950;2022-08-19T12:09:08;27.40;99.90
4727;DHT22;2377;51.734;8.950;2022-08-19T12:11:38;27.50;99.90
4727;DHT22;2377;51.734;8.950;2022-08-19T12:14:10;27.60;99.90
4727;DHT22;2377;51.734;8.950;2022-08-19T12:16:39;27.80;99.90
4727;DHT22;2377;51.734;8.950;2022-08-19T12:19:07;27.90;99.90
4727;DHT22;2377;51.734;8.950;2022-08-19T12:21:35;28.00;99.90
4727;DHT22;2377;51.734;8.950;2022-08-19T12:24:04;27.80;99.90
4727;DHT22;2377;51.734;8.950;2022-08-19T12:26:33;27.60;99.90
4727;DHT22;2377;51.734;8.950;2022-08-19T12:29:00;27.60;99.90
4727;DHT22;2377;51.734;8.950;2022-08-19T12:31:29;27.60;99.90
4727;DHT22;2377;51.734;8.950;2022-08-19T12:33:56;27.50;99.90
4727;DHT22;2377;51.734;8.950;2022-08-19T12:36:24;27.40;99.90
4727;DHT22;2377;51.734;8.950;2022-08-19T12:38:52;27.40;99.90
4727;DHT22;2377;51.734;8.950;2022-08-19T12:41:20;27.10;99.90
4727;DHT22;2377;51.734;8.950;2022-08-19T12:43:49;26.80;99.90
4727;DHT22;2377;51.734;8.950;2022-08-19T12:46:17;26.60;99.90
4727;DHT22;2377;51.734;8.950;2022-08-19T12:48:47;26.80;99.90
4727;DHT22;2377;51.734;8.950;2022-08-19T12:51:17;27.00;99.90
4727;DHT22;2377;51.734;8.950;2022-08-19T12:53:45;27.10;99.90
4727;DHT22;2377;51.734;8.950;2022-08-19T12:56:13;27.00;99.90
4727;DHT22;2377;51.734;8.950;2022-08-19T12:58:41;26.90;99.90
4727;DHT22;2377;51.734;8.950;2022-08-19T13:01:10;26.80;99.90
4727;DHT22;2377;51.734;8.950;2022-08-19T13:03:40;26.60;99.90
4727;DHT22;2377;51.734;8.950;2022-08-19T13:06:09;26.50;99.90
4727;DHT22;2377;51.734;8.950;2022-08-19T13:08:37;26.30;99.90
4727;DHT22;2377;51.734;8.950;2022-08-19T13:11:10;26.20;99.90
4727;DHT22;2377;51.734;8.950;2022-08-19T13:13:39;26.10;99.90
4727;DHT22;2377;51.734;8.950;2022-08-19T13:16:08;26.20;99.90
4727;DHT22;2377;51.734;8.950;2022-08-19T13:18:37;26.30;99.90
4727;DHT22;2377;51.734;8.950;2022-08-19T13:21:07;26.30;99.90
4727;DHT22;2377;51.734;8.950;2022-08-19T13:23:39;26.20;99.90
4727;DHT22;2377;51.734;8.950;2022-08-19T13:26:08;26.20;99.90
4727;DHT22;2377;51.734;8.950;2022-08-19T13:28:37;26.20;99.90
4727;DHT22;2377;51.734;8.950;2022-08-19T13:31:23;26.30;99.90
4727;DHT22;2377;51.734;8.950;2022-08-19T13:34:09;26.50;99.90
4727;DHT22;2377;51.734;8.950;2022-08-19T13:36:38;26.60;99.90
4727;DHT22;2377;51.734;8.950;2022-08-19T13:39:07;26.70;99.90
4727;DHT22;2377;51.734;8.950;2022-08-19T13:41:35;26.60;99.90
4727;DHT22;2377;51.734;8.950;2022-08-19T13:44:03;26.50;99.90
4727;DHT22;2377;51.734;8.950;2022-08-19T13:46:31;26.60;99.90
4727;DHT22;2377;51.734;8.950;2022-08-19T13:48:58;26.80;99.90
4727;DHT22;2377;51.734;8.950;2022-08-19T13:51:25;26.80;99.90
4727;DHT22;2377;51.734;8.950;2022-08-19T13:53:54;26.70;99.90
4727;DHT22;2377;51.734;8.950;2022-08-19T13:56:21;26.60;99.90
4727;DHT22;2377;51.734;8.950;2022-08-19T13:58:49;26.60;99.90
4727;DHT22;2377;51.734;8.950;2022-08-19T14:01:19;26.50;99.90
4727;DHT22;2377;51.734;8.950;2022-08-19T14:03:48;26.50;99.90
4727;DHT22;2377;51.734;8.950;2022-08-19T14:06:15;26.50;99.90
4727;DHT22;2377;51.734;8.950;2022-08-19T14:08:43;26.70;99.90
4727;DHT22;2377;51.734;8.950;2022-08-19T14:11:12;26.90;99.90
4727;DHT22;2377;51.734;8.950;2022-08-19T14:13:40;27.10;99.90
4727;DHT22;2377;51.734;8.950;2022-08-19T14:16:08;27.20;99.90
4727;DHT22;2377;51.734;8.950;2022-08-19T14:18:36;27.00;99.90
4727;DHT22;2377;51.734;8.950;2022-08-19T14:21:05;26.80;99.90
4727;DHT22;2377;51.734;8.950;2022-08-19T14:23:34;26.70;99.90
4727;DHT22;2377;51.734;8.950;2022-08-19T14:26:09;26.60;99.90
4727;DHT22;2377;51.734;8.950;2022-08-19T14:28:39;26.60;99.90
4727;DHT22;2377;51.734;8.950;2022-08-19T14:31:07;26.60;99.90
4727;DHT22;2377;51.734;8.950;2022-08-19T14:33:34;26.50;99.90
4727;DHT22;2377;51.734;8.950;2022-08-19T14:36:02;26.50;99.90
4727;DHT22;2377;51.734;8.950;2022-08-19T14:38:30;26.60;99.90
4727;DHT22;2377;51.734;8.950;2022-08-19T14:41:07;26.60;99.90
4727;DHT22;2377;51.734;8.950;2022-08-19T14:43:36;26.60;99.90
4727;DHT22;2377;51.734;8.950;2022-08-19T14:46:05;26.60;99.90
4727;DHT22;2377;51.734;8.950;2022-08-19T14:48:32;26.60;99.90
4727;DHT22;2377;51.734;8.950;2022-08-19T14:50:59;26.60;99.90
4727;DHT22;2377;51.734;8.950;2022-08-19T14:53:26;26.50;99.90
4727;DHT22;2377;51.734;8.950;2022-08-19T14:55:53;26.50;99.90
4727;DHT22;2377;51.734;8.950;2022-08-19T14:58:20;26.30;99.90
4727;DHT22;2377;51.734;8.950;2022-08-19T15:00:48;26.30;99.90
4727;DHT22;2377;51.734;8.950;2022-08-19T15:03:16;26.40;99.90
4727;DHT22;2377;51.734;8.950;2022-08-19T15:05:43;26.30;99.90
4727;DHT22;2377;51.734;8.950;2022-08-19T15:08:11;26.40;99.90
4727;DHT22;2377;51.734;8.950;2022-08-19T15:10:39;26.30;99.90
4727;DHT22;2377;51.734;8.950;2022-08-19T15:13:06;26.30;99.90
4727;DHT22;2377;51.734;8.950;2022-08-19T15:15:35;26.20;99.90
4727;DHT22;2377;51.734;8.950;2022-08-19T15:18:03;26.20;99.90
4727;DHT22;2377;51.734;8.950;2022-08-19T15:20:31;26.20;99.90
4727;DHT22;2377;51.734;8.950;2022-08-19T15:22:58;26.20;99.90
4727;DHT22;2377;51.734;8.950;2022-08-19T15:25:26;26.20;99.90
4727;DHT22;2377;51.734;8.950;2022-08-19T15:27:54;26.10;99.90
4727;DHT22;2377;51.734;8.950;2022-08-19T15:30:23;26.20;99.90
4727;DHT22;2377;51.734;8.950;2022-08-19T15:32:52;26.20;99.90
4727;DHT22;2377;51.734;8.950;2022-08-19T15:35:21;26.30;99.90
4727;DHT22;2377;51.734;8.950;2022-08-19T15:37:51;26.30;99.90
4727;DHT22;2377;51.734;8.950;2022-08-19T15:40:19;26.30;99.90
4727;DHT22;2377;51.734;8.950;2022-08-19T15:42:48;26.30;99.90
4727;DHT22;2377;51.734;8.950;2022-08-19T15:45:16;26.30;99.90
4727;DHT22;2377;51.734;8.950;2022-08-19T15:47:46;26.30;99.90
4727;DHT22;2377;51.734;8.950;2022-08-19T15:50:15;26.30;99.90
4727;DHT22;2377;51.734;8.950;2022-08-19T15:52:47;26.30;99.90
4727;DHT22;2377;51.734;8.950;2022-08-19T15:55:18;26.30;99.90
4727;DHT22;2377;51.734;8.950;2022-08-19T15:57:47;26.30;99.90
4727;DHT22;2377;51.734;8.950;2022-08-19T16:00:32;26.30;99.90
4727;DHT22;2377;51.734;8.950;2022-08-19T16:03:18;26.40;99.90
4727;DHT22;2377;51.734;8.950;2022-08-19T16:06:03;26.40;99.90
4727;DHT22;2377;51.734;8.950;2022-08-19T16:08:49;26.40;99.90
4727;DHT22;2377;51.734;8.950;2022-08-19T16:11:17;26.50;99.90
4727;DHT22;2377;51.734;8.950;2022-08-19T16:13:45;26.50;99.90
4727;DHT22;2377;51.734;8.950;2022-08-19T16:16:16;26.60;99.90
4727;DHT22;2377;51.734;8.950;2022-08-19T16:18:43;26.60;99.90
4727;DHT22;2377;51.734;8.950;2022-08-19T16:21:12;26.60;99.90